sensor_id;sensor_type;location;lat;lon;timestamp;temperature;humidity
18593;DHT22;9426;54.118;17.948;2023-02-19T00:03:11;2.90;99.90
18593;DHT22;9426;54.118;17.948;2023-02-19T00:08:36;2.90;99.90
18593;DHT22;9426;54.118;17.948;2023-02-19T00:14:01;2.80;99.90
18593;DHT22;9426;54.118;17.948;2023-02-19T00:19:27;2.90;99.90
18593;DHT22;9426;54.118;17.948;2023-02-19T00:24:51;3.00;99.90
18593;DHT22;9426;54.118;17.948;2023-02-19T00:30:15;3.00;99.90
18593;DHT22;9426;54.118;17.948;2023-02-19T00:35:40;3.00;99.90
18593;DHT22;9426;54.118;17.948;2023-02-19T00:41:05;3.00;99.90
18593;DHT22;9426;54.118;17.948;2023-02-19T00:46:41;2.90;99.90
18593;DHT22;9426;54.118;17.948;2023-02-19T00:52:06;2.80;99.90
18593;DHT22;9426;54.118;17.948;2023-02-19T00:57:30;2.80;99.90
18593;DHT22;9426;54.118;17.948;2023-02-19T01:02:54;2.90;99.90
18593;DHT22;9426;54.118;17.948;2023-02-19T01:08:21;2.90;99.90
18593;DHT22;9426;54.118;17.948;2023-02-19T01:13:45;2.90;99.90
18593;DHT22;9426;54.118;17.948;2023-02-19T01:19:09;2.80;99.90
18593;DHT22;9426;54.118;17.948;2023-02-19T01:24:35;2.80;99.90
18593;DHT22;9426;54.118;17.948;2023-02-19T01:29:59;2.80;99.90
18593;DHT22;9426;54.118;17.948;2023-02-19T01:35:23;2.70;99.90
18593;DHT22;9426;54.118;17.948;2023-02-19T01:40:54;2.50;99.90
18593;DHT22;9426;54.118;17.948;2023-02-19T01:46:18;3.50;99.90
18593;DHT22;9426;54.118;17.948;2023-02-19T01:51:45;2.60;99.90
18593;DHT22;9426;54.118;17.948;2023-02-19T01:57:18;2.70;99.90
18593;DHT22;9426;54.118;17.948;2023-02-19T02:02:46;2.70;99.90
18593;DHT22;9426;54.118;17.948;2023-02-19T02:08:12;2.60;99.90
18593;DHT22;9426;54.118;17.948;2023-02-19T02:13:56;2.70;99.90
18593;DHT22;9426;54.118;17.948;2023-02-19T02:19:29;2.70;99.90
18593;DHT22;9426;54.118;17.948;2023-02-19T02:25:46;2.60;99.90
18593;DHT22;9426;54.118;17.948;2023-02-19T02:31:17;2.50;99.90
18593;DHT22;9426;54.118;17.948;2023-02-19T02:36:46;2.50;99.90
18593;DHT22;9426;54.118;17.948;2023-02-19T02:42:14;2.50;99.90
18593;DHT22;9426;54.118;17.948;2023-02-19T02:48:06;2.50;99.90
18593;DHT22;9426;54.118;17.948;2023-02-19T02:53:34;2.50;99.90
18593;DHT22;9426;54.118;17.948;2023-02-19T02:59:20;2.50;99.90
18593;DHT22;9426;54.118;17.948;2023-02-19T03:04:51;2.50;99.90
18593;DHT22;9426;54.118;17.948;2023-02-19T03:10:38;2.50;99.90
18593;DHT22;9426;54.118;17.948;2023-02-19T03:16:07;2.50;99.90
18593;DHT22;9426;54.118;17.948;2023-02-19T03:21:54;2.60;99.90
18593;DHT22;9426;54.118;17.948;2023-02-19T03:27:20;2.60;99.90
18593;DHT22;9426;54.118;17.948;2023-02-19T03:32:50;2.60;99.90
18593;DHT22;9426;54.118;17.948;2023-02-19T03:38:19;2.60;99.90
18593;DHT22;9426;54.118;17.948;2023-02-19T03:43:53;2.60;99.90
18593;DHT22;9426;54.118;17.948;2023-02-19T03:49:24;2.60;99.90
18593;DHT22;9426;54.118;17.948;2023-02-19T03:54:56;2.50;99.90
18593;DHT22;9426;54.118;17.948;2023-02-19T04:00:29;2.60;99.90
18593;DHT22;9426;54.118;17.948;2023-02-19T04:05:58;2.50;99.90
18593;DHT22;9426;54.118;17.948;2023-02-19T04:11:26;2.50;99.90
18593;DHT22;9426;54.118;17.948;2023-02-19T04:17:00;2.50;99.90
18593;DHT22;9426;54.118;17.948;2023-02-19T04:22:24;2.60;99.90
18593;DHT22;9426;54.118;17.948;2023-02-19T04:27:51;2.60;99.90
18593;DHT22;9426;54.118;17.948;2023-02-19T04:33:15;3.00;99.90
18593;DHT22;9426;54.118;17.948;2023-02-19T04:38:39;2.50;99.90
18593;DHT22;9426;54.118;17.948;2023-02-19T04:44:04;2.60;99.90
18593;DHT22;9426;54.118;17.948;2023-02-19T04:49:28;2.70;99.90
18593;DHT22;9426;54.118;17.948;2023-02-19T04:54:52;2.70;99.90
18593;DHT22;9426;54.118;17.948;2023-02-19T05:00:17;2.60;99.90
18593;DHT22;9426;54.118;17.948;2023-02-19T05:05:41;2.60;99.90
18593;DHT22;9426;54.118;17.948;2023-02-19T05:11:07;2.60;99.90
18593;DHT22;9426;54.118;17.948;2023-02-19T05:16:34;2.60;99.90
18593;DHT22;9426;54.118;17.948;2023-02-19T05:21:57;2.60;99.90
18593;DHT22;9426;54.118;17.948;2023-02-19T05:27:21;2.60;99.90
18593;DHT22;9426;54.118;17.948;2023-02-19T05:32:46;2.50;99.90
18593;DHT22;9426;54.118;17.948;2023-02-19T05:38:11;2.50;99.90
18593;DHT22;9426;54.118;17.948;2023-02-19T05:43:34;2.50;99.90
18593;DHT22;9426;54.118;17.948;2023-02-19T05:48:59;2.50;99.90
18593;DHT22;9426;54.118;17.948;2023-02-19T05:54:26;2.50;99.90
18593;DHT22;9426;54.118;17.948;2023-02-19T05:59:50;2.60;99.90
18593;DHT22;9426;54.118;17.948;2023-02-19T06:05:16;2.60;99.90
18593;DHT22;9426;54.118;17.948;2023-02-19T06:10:40;2.70;99.90
18593;DHT22;9426;54.118;17.948;2023-02-19T06:16:06;2.70;99.90
18593;DHT22;9426;54.118;17.948;2023-02-19T06:21:31;2.60;99.90
18593;DHT22;9426;54.118;17.948;2023-02-19T06:26:55;2.50;99.90
18593;DHT22;9426;54.118;17.948;2023-02-19T06:32:19;2.40;99.90
18593;DHT22;9426;54.118;17.948;2023-02-19T06:37:46;2.40;99.90
18593;DHT22;9426;54.118;17.948;2023-02-19T06:43:10;2.50;99.90
18593;DHT22;9426;54.118;17.948;2023-02-19T06:48:34;2.60;99.90
18593;DHT22;9426;54.118;17.948;2023-02-19T06:54:00;2.60;99.90
18593;DHT22;9426;54.118;17.948;2023-02-19T06:59:25;2.60;99.90
18593;DHT22;9426;54.118;17.948;2023-02-19T07:04:48;2.60;99.90
18593;DHT22;9426;54.118;17.948;2023-02-19T07:10:14;2.70;99.90
18593;DHT22;9426;54.118;17.948;2023-02-19T07:15:38;2.90;99.90
18593;DHT22;9426;54.118;17.948;2023-02-19T07:21:03;3.00;99.90
18593;DHT22;9426;54.118;17.948;2023-02-19T07:26:28;2.90;99.90
18593;DHT22;9426;54.118;17.948;2023-02-19T07:31:52;3.00;99.90
18593;DHT22;9426;54.118;17.948;2023-02-19T07:37:16;3.20;99.90
18593;DHT22;9426;54.118;17.948;2023-02-19T07:42:41;3.10;99.90
18593;DHT22;9426;54.118;17.948;2023-02-19T07:48:05;3.20;99.90
18593;DHT22;9426;54.118;17.948;2023-02-19T07:53:29;3.20;99.90
18593;DHT22;9426;54.118;17.948;2023-02-19T07:58:54;3.20;99.90
18593;DHT22;9426;54.118;17.948;2023-02-19T08:04:18;3.40;99.90
18593;DHT22;9426;54.118;17.948;2023-02-19T08:09:42;3.60;99.90
18593;DHT22;9426;54.118;17.948;2023-02-19T08:25:56;3.80;99.90
18593;DHT22;9426;54.118;17.948;2023-02-19T08:31:22;3.70;99.90
18593;DHT22;9426;54.118;17.948;2023-02-19T08:36:46;3.80;99.90
18593;DHT22;9426;54.118;17.948;2023-02-19T08:42:10;3.80;99.90
18593;DHT22;9426;54.118;17.948;2023-02-19T08:47:35;3.80;99.90
18593;DHT22;9426;54.118;17.948;2023-02-19T08:52:59;3.90;99.90
18593;DHT22;9426;54.118;17.948;2023-02-19T08:58:23;3.90;99.90
18593;DHT22;9426;54.118;17.948;2023-02-19T09:03:49;4.00;99.90
18593;DHT22;9426;54.118;17.948;2023-02-19T09:09:13;4.10;99.90
18593;DHT22;9426;54.118;17.948;2023-02-19T09:14:37;4.30;99.90
18593;DHT22;9426;54.118;17.948;2023-02-19T09:20:12;4.20;99.90
18593;DHT22;9426;54.118;17.948;2023-02-19T09:25:42;4.20;99.90
18593;DHT22;9426;54.118;17.948;2023-02-19T09:31:08;4.20;99.90
18593;DHT22;9426;54.118;17.948;2023-02-19T09:36:34;4.40;99.90
18593;DHT22;9426;54.118;17.948;2023-02-19T09:42:00;4.70;99.90
18593;DHT22;9426;54.118;17.948;2023-02-19T09:47:26;4.60;99.90
18593;DHT22;9426;54.118;17.948;2023-02-19T09:52:54;4.60;99.90
18593;DHT22;9426;54.118;17.948;2023-02-19T09:58:24;4.60;99.90
18593;DHT22;9426;54.118;17.948;2023-02-19T10:04:03;4.60;99.90
18593;DHT22;9426;54.118;17.948;2023-02-19T10:09:58;4.70;99.90
18593;DHT22;9426;54.118;17.948;2023-02-19T10:15:27;5.20;99.90
18593;DHT22;9426;54.118;17.948;2023-02-19T10:20:52;5.60;99.90
18593;DHT22;9426;54.118;17.948;2023-02-19T10:26:18;5.50;99.90
18593;DHT22;9426;54.118;17.948;2023-02-19T10:31:42;5.50;99.90
18593;DHT22;9426;54.118;17.948;2023-02-19T10:37:11;5.40;99.90
18593;DHT22;9426;54.118;17.948;2023-02-19T10:42:45;5.30;99.90
18593;DHT22;9426;54.118;17.948;2023-02-19T10:48:21;5.50;99.90
18593;DHT22;9426;54.118;17.948;2023-02-19T10:53:49;6.10;99.90
18593;DHT22;9426;54.118;17.948;2023-02-19T10:59:22;6.00;99.90
18593;DHT22;9426;54.118;17.948;2023-02-19T11:05:14;7.00;99.90
18593;DHT22;9426;54.118;17.948;2023-02-19T11:10:39;6.80;99.90
18593;DHT22;9426;54.118;17.948;2023-02-19T11:16:06;5.80;99.90
18593;DHT22;9426;54.118;17.948;2023-02-19T11:21:31;6.40;99.90
18593;DHT22;9426;54.118;17.948;2023-02-19T11:26:56;7.80;99.90
18593;DHT22;9426;54.118;17.948;2023-02-19T11:32:27;9.00;99.90
18593;DHT22;9426;54.118;17.948;2023-02-19T11:37:56;9.20;99.90
18593;DHT22;9426;54.118;17.948;2023-02-19T11:43:35;9.30;99.70
18593;DHT22;9426;54.118;17.948;2023-02-19T11:49:16;9.70;97.40
18593;DHT22;9426;54.118;17.948;2023-02-19T11:54:48;9.50;95.80
18593;DHT22;9426;54.118;17.948;2023-02-19T12:00:25;8.30;93.60
18593;DHT22;9426;54.118;17.948;2023-02-19T12:05:57;9.00;92.10
18593;DHT22;9426;54.118;17.948;2023-02-19T12:17:30;8.70;93.80
18593;DHT22;9426;54.118;17.948;2023-02-19T12:23:16;8.50;92.00
18593;DHT22;9426;54.118;17.948;2023-02-19T12:29:01;8.90;91.50
18593;DHT22;9426;54.118;17.948;2023-02-19T12:34:49;8.70;91.70
18593;DHT22;9426;54.118;17.948;2023-02-19T12:40:32;8.40;90.30
18593;DHT22;9426;54.118;17.948;2023-02-19T12:46:02;8.60;85.70
18593;DHT22;9426;54.118;17.948;2023-02-19T12:51:29;9.00;85.40
18593;DHT22;9426;54.118;17.948;2023-02-19T12:57:00;8.70;88.60
18593;DHT22;9426;54.118;17.948;2023-02-19T13:02:28;8.60;88.80
18593;DHT22;9426;54.118;17.948;2023-02-19T13:08:01;8.20;90.60
18593;DHT22;9426;54.118;17.948;2023-02-19T13:13:33;8.50;89.00
18593;DHT22;9426;54.118;17.948;2023-02-19T13:19:01;10.10;83.80
18593;DHT22;9426;54.118;17.948;2023-02-19T13:24:27;10.40;80.20
18593;DHT22;9426;54.118;17.948;2023-02-19T13:30:06;9.00;76.70
18593;DHT22;9426;54.118;17.948;2023-02-19T13:36:04;7.50;79.10
18593;DHT22;9426;54.118;17.948;2023-02-19T13:41:39;8.10;82.70
18593;DHT22;9426;54.118;17.948;2023-02-19T13:59:38;7.40;81.60
18593;DHT22;9426;54.118;17.948;2023-02-19T14:05:09;6.80;78.00
18593;DHT22;9426;54.118;17.948;2023-02-19T14:10:57;5.50;81.60
18593;DHT22;9426;54.118;17.948;2023-02-19T14:22:48;4.40;83.00
18593;DHT22;9426;54.118;17.948;2023-02-19T14:28:20;4.00;86.80
18593;DHT22;9426;54.118;17.948;2023-02-19T14:33:47;3.70;90.40
18593;DHT22;9426;54.118;17.948;2023-02-19T14:39:16;3.50;92.20
18593;DHT22;9426;54.118;17.948;2023-02-19T14:44:47;3.20;92.90
18593;DHT22;9426;54.118;17.948;2023-02-19T14:50:15;3.10;94.70
18593;DHT22;9426;54.118;17.948;2023-02-19T14:55:42;3.00;95.30
18593;DHT22;9426;54.118;17.948;2023-02-19T15:01:06;3.10;94.90
18593;DHT22;9426;54.118;17.948;2023-02-19T15:06:47;3.00;95.80
18593;DHT22;9426;54.118;17.948;2023-02-19T15:12:19;2.90;96.60
18593;DHT22;9426;54.118;17.948;2023-02-19T15:17:44;2.90;96.20
18593;DHT22;9426;54.118;17.948;2023-02-19T15:23:07;2.80;97.90
18593;DHT22;9426;54.118;17.948;2023-02-19T15:28:33;2.80;99.90
18593;DHT22;9426;54.118;17.948;2023-02-19T15:33:57;2.80;99.90
18593;DHT22;9426;54.118;17.948;2023-02-19T15:39:23;2.70;99.90
18593;DHT22;9426;54.118;17.948;2023-02-19T15:44:52;2.60;99.90
18593;DHT22;9426;54.118;17.948;2023-02-19T15:50:21;2.60;99.90
18593;DHT22;9426;54.118;17.948;2023-02-19T15:55:53;2.40;99.90
18593;DHT22;9426;54.118;17.948;2023-02-19T16:01:22;2.30;99.90
18593;DHT22;9426;54.118;17.948;2023-02-19T16:06:55;2.10;99.90
18593;DHT22;9426;54.118;17.948;2023-02-19T16:12:21;2.10;99.90
18593;DHT22;9426;54.118;17.948;2023-02-19T16:17:47;1.90;99.90
18593;DHT22;9426;54.118;17.948;2023-02-19T16:23:20;1.90;99.90
18593;DHT22;9426;54.118;17.948;2023-02-19T16:28:49;1.70;99.90
18593;DHT22;9426;54.118;17.948;2023-02-19T16:34:30;1.60;99.90
18593;DHT22;9426;54.118;17.948;2023-02-19T16:45:47;1.40;99.90
18593;DHT22;9426;54.118;17.948;2023-02-19T16:51:16;1.20;99.90
18593;DHT22;9426;54.118;17.948;2023-02-19T16:56:43;1.30;99.90
18593;DHT22;9426;54.118;17.948;2023-02-19T17:02:09;1.20;99.90
18593;DHT22;9426;54.118;17.948;2023-02-19T17:07:39;1.10;99.90
18593;DHT22;9426;54.118;17.948;2023-02-19T17:37:29;1.20;99.90
18593;DHT22;9426;54.118;17.948;2023-02-19T17:43:21;0.20;99.90
18593;DHT22;9426;54.118;17.948;2023-02-19T17:55:08;1.40;99.90
18593;DHT22;9426;54.118;17.948;2023-02-19T18:00:59;1.60;99.90
18593;DHT22;9426;54.118;17.948;2023-02-19T18:06:36;1.80;99.90
18593;DHT22;9426;54.118;17.948;2023-02-19T18:28:16;2.00;99.90
18593;DHT22;9426;54.118;17.948;2023-02-19T18:33:41;1.60;99.90
18593;DHT22;9426;54.118;17.948;2023-02-19T18:39:04;1.80;99.90
18593;DHT22;9426;54.118;17.948;2023-02-19T18:44:29;1.80;99.90
18593;DHT22;9426;54.118;17.948;2023-02-19T18:49:54;1.70;99.90
18593;DHT22;9426;54.118;17.948;2023-02-19T18:55:18;1.70;99.90
18593;DHT22;9426;54.118;17.948;2023-02-19T19:00:44;1.80;99.90
18593;DHT22;9426;54.118;17.948;2023-02-19T19:06:08;1.70;99.90
18593;DHT22;9426;54.118;17.948;2023-02-19T19:11:32;1.70;99.90
18593;DHT22;9426;54.118;17.948;2023-02-19T19:16:57;1.80;99.90
18593;DHT22;9426;54.118;17.948;2023-02-19T19:22:21;1.70;99.90
18593;DHT22;9426;54.118;17.948;2023-02-19T19:27:45;1.70;99.90
18593;DHT22;9426;54.118;17.948;2023-02-19T19:33:13;1.70;99.90
18593;DHT22;9426;54.118;17.948;2023-02-19T19:38:38;1.50;99.90
18593;DHT22;9426;54.118;17.948;2023-02-19T19:44:03;1.80;99.90
18593;DHT22;9426;54.118;17.948;2023-02-19T19:49:29;1.90;99.90
18593;DHT22;9426;54.118;17.948;2023-02-19T19:54:54;2.10;99.90
18593;DHT22;9426;54.118;17.948;2023-02-19T20:00:18;2.10;99.90
18593;DHT22;9426;54.118;17.948;2023-02-19T20:05:46;2.40;99.90
18593;DHT22;9426;54.118;17.948;2023-02-19T20:11:11;2.40;99.90
18593;DHT22;9426;54.118;17.948;2023-02-19T20:16:35;2.60;99.90
18593;DHT22;9426;54.118;17.948;2023-02-19T20:22:01;2.80;99.90
18593;DHT22;9426;54.118;17.948;2023-02-19T20:27:24;3.00;99.90
18593;DHT22;9426;54.118;17.948;2023-02-19T20:32:48;3.00;99.90
18593;DHT22;9426;54.118;17.948;2023-02-19T20:38:15;3.00;99.90
18593;DHT22;9426;54.118;17.948;2023-02-19T20:43:39;3.10;99.90
18593;DHT22;9426;54.118;17.948;2023-02-19T20:49:02;3.10;99.90
18593;DHT22;9426;54.118;17.948;2023-02-19T20:54:29;3.30;99.90
18593;DHT22;9426;54.118;17.948;2023-02-19T20:59:53;3.30;99.90
18593;DHT22;9426;54.118;17.948;2023-02-19T21:05:17;3.40;99.90
18593;DHT22;9426;54.118;17.948;2023-02-19T21:10:43;3.40;99.90
18593;DHT22;9426;54.118;17.948;2023-02-19T21:16:07;3.40;99.90
18593;DHT22;9426;54.118;17.948;2023-02-19T21:21:31;3.40;99.90
18593;DHT22;9426;54.118;17.948;2023-02-19T21:26:57;3.50;99.90
18593;DHT22;9426;54.118;17.948;2023-02-19T21:32:21;3.40;99.90
18593;DHT22;9426;54.118;17.948;2023-02-19T21:37:45;3.40;99.90
18593;DHT22;9426;54.118;17.948;2023-02-19T21:43:10;3.40;99.90
18593;DHT22;9426;54.118;17.948;2023-02-19T21:48:34;3.40;99.90
18593;DHT22;9426;54.118;17.948;2023-02-19T21:53:58;3.50;99.90
18593;DHT22;9426;54.118;17.948;2023-02-19T21:59:23;3.50;99.90
18593;DHT22;9426;54.118;17.948;2023-02-19T22:04:50;3.50;99.90
18593;DHT22;9426;54.118;17.948;2023-02-19T22:10:15;3.50;99.90
18593;DHT22;9426;54.118;17.948;2023-02-19T22:15:41;3.50;99.90
18593;DHT22;9426;54.118;17.948;2023-02-19T22:21:05;3.50;99.90
18593;DHT22;9426;54.118;17.948;2023-02-19T22:26:30;3.50;99.90
18593;DHT22;9426;54.118;17.948;2023-02-19T22:31:56;3.40;99.90
18593;DHT22;9426;54.118;17.948;2023-02-19T22:37:20;3.40;99.90
18593;DHT22;9426;54.118;17.948;2023-02-19T22:42:43;3.40;99.90
18593;DHT22;9426;54.118;17.948;2023-02-19T22:48:09;3.50;99.90
18593;DHT22;9426;54.118;17.948;2023-02-19T22:53:38;3.40;99.90
18593;DHT22;9426;54.118;17.948;2023-02-19T22:59:01;3.50;99.90
18593;DHT22;9426;54.118;17.948;2023-02-19T23:04:26;3.60;99.90
18593;DHT22;9426;54.118;17.948;2023-02-19T23:09:50;3.60;99.90
18593;DHT22;9426;54.118;17.948;2023-02-19T23:15:14;3.60;99.90
18593;DHT22;9426;54.118;17.948;2023-02-19T23:20:39;3.60;99.90
18593;DHT22;9426;54.118;17.948;2023-02-19T23:26:03;3.70;99.90
18593;DHT22;9426;54.118;17.948;2023-02-19T23:31:27;3.60;99.90
18593;DHT22;9426;54.118;17.948;2023-02-19T23:36:53;3.60;99.90
18593;DHT22;9426;54.118;17.948;2023-02-19T23:42:20;3.50;99.90
18593;DHT22;9426;54.118;17.948;2023-02-19T23:47:44;3.60;99.90
18593;DHT22;9426;54.118;17.948;2023-02-19T23:58:33;3.60;99.90
